LTFJ/SAW METAR and TAF weather

Enter ICAO airport designator
Station Type Date Time Source
LTFJ METAR 2018/12/17 17:20 UTC NOAA

LTFJ 171720Z 04004KT 4600 BR SCT008 BKN025 10/09 Q1016 NOSIG


Station Type Date Time Source
LTFJ Decoded METAR 2018/12/17 17:20 UTC NOAA

Istanbul / Sabiha Gokcen, Turkey (LTFJ) 40-53-55N 029-18-33E
Dec 17, 2018 - 12:20 PM EST / 2018.12.17 1720 UTC
Wind: from the NE (040 degrees) at 5 MPH (4 KT):0
Visibility: 2 mile(s):0
Sky conditions: mostly cloudy
Weather: mist
Temperature: 50 F (10 C)
Dew Point: 48 F (9 C)
Relative Humidity: 93%
Pressure (altimeter): 30.00 in. Hg (1016 hPa)
ob: LTFJ 171720Z 04004KT 4600 BR SCT008 BKN025 10/09 Q1016 NOSIG
cycle: 17

Station Type Date Time Source
LTFJ TAF 2018/12/17 18:51 UTC NOAA

TAF LTFJ 151640Z 1518/1618 VRB02KT CAVOK
TEMPO 1608/1612 20012KT


Example: see airport list